sensor_id;sensor_type;location;lat;lon;timestamp;pressure;altitude;pressure_sealevel;temperature;humidity
36354;BME280;22383;51.114;13.666;2023-03-03T00:01:17;66979.13;;;-1.98;100.00
36354;BME280;22383;51.114;13.666;2023-03-03T00:03:45;66987.91;;;-1.93;100.00
36354;BME280;22383;51.114;13.666;2023-03-03T00:06:13;66985.09;;;-1.95;100.00
36354;BME280;22383;51.114;13.666;2023-03-03T00:08:40;66979.13;;;-1.98;100.00
36354;BME280;22383;51.114;13.666;2023-03-03T00:11:09;66974.63;;;-2.02;100.00
36354;BME280;22383;51.114;13.666;2023-03-03T00:13:51;66954.09;;;-2.19;100.00
36354;BME280;22383;51.114;13.666;2023-03-03T00:18:52;66945.47;;;-2.29;100.00
36354;BME280;22383;51.114;13.666;2023-03-03T00:21:32;66952.00;;;-2.25;100.00
36354;BME280;22383;51.114;13.666;2023-03-03T00:24:20;66946.59;;;-2.28;100.00
36354;BME280;22383;51.114;13.666;2023-03-03T00:26:55;66883.72;;;-2.43;100.00
36354;BME280;22383;51.114;13.666;2023-03-03T00:29:30;66921.16;;;-2.54;100.00
36354;BME280;22383;51.114;13.666;2023-03-03T00:32:15;66918.56;;;-2.54;100.00
36354;BME280;22383;51.114;13.666;2023-03-03T00:34:46;66916.09;;;-2.58;100.00
36354;BME280;22383;51.114;13.666;2023-03-03T00:37:45;66927.88;;;-2.48;100.00
36354;BME280;22383;51.114;13.666;2023-03-03T00:40:58;66921.16;;;-2.54;100.00
36354;BME280;22383;51.114;13.666;2023-03-03T00:43:17;66920.25;;;-2.52;100.00
36354;BME280;22383;51.114;13.666;2023-03-03T00:45:53;66909.22;;;-2.60;100.00
36354;BME280;22383;51.114;13.666;2023-03-03T00:48:25;66903.44;;;-2.68;100.00
36354;BME280;22383;51.114;13.666;2023-03-03T00:50:55;66898.16;;;-2.75;100.00
36354;BME280;22383;51.114;13.666;2023-03-03T00:53:26;66890.31;;;-2.82;100.00
36354;BME280;22383;51.114;13.666;2023-03-03T00:55:54;66838.31;;;-2.85;100.00
36354;BME280;22383;51.114;13.666;2023-03-03T00:58:23;66837.00;;;-2.88;100.00
36354;BME280;22383;51.114;13.666;2023-03-03T01:00:52;66886.03;;;-2.83;100.00
36354;BME280;22383;51.114;13.666;2023-03-03T01:03:25;66894.25;;;-2.78;100.00
36354;BME280;22383;51.114;13.666;2023-03-03T01:05:53;66878.19;;;-2.91;100.00
36354;BME280;22383;51.114;13.666;2023-03-03T01:08:21;66874.59;;;-2.96;100.00
36354;BME280;22383;51.114;13.666;2023-03-03T01:10:53;66865.50;;;-3.00;100.00
36354;BME280;22383;51.114;13.666;2023-03-03T01:13:25;66879.53;;;-2.87;100.00
36354;BME280;22383;51.114;13.666;2023-03-03T01:15:53;66869.44;;;-2.96;100.00
36354;BME280;22383;51.114;13.666;2023-03-03T01:18:20;66819.63;;;-3.04;100.00
36354;BME280;22383;51.114;13.666;2023-03-03T01:20:53;66860.06;;;-3.10;100.00
36354;BME280;22383;51.114;13.666;2023-03-03T01:23:20;66849.97;;;-3.19;100.00
36354;BME280;22383;51.114;13.666;2023-03-03T01:25:48;66842.69;;;-3.26;100.00
36354;BME280;22383;51.114;13.666;2023-03-03T01:28:15;66839.53;;;-3.26;100.00
36354;BME280;22383;51.114;13.666;2023-03-03T01:30:43;66797.78;;;-3.24;100.00
36354;BME280;22383;51.114;13.666;2023-03-03T01:33:10;66839.88;;;-3.28;100.00
36354;BME280;22383;51.114;13.666;2023-03-03T01:35:42;66789.63;;;-3.29;100.00
36354;BME280;22383;51.114;13.666;2023-03-03T01:38:10;66849.63;;;-3.17;100.00
36354;BME280;22383;51.114;13.666;2023-03-03T01:40:37;66861.94;;;-3.06;100.00
36354;BME280;22383;51.114;13.666;2023-03-03T01:43:04;66876.28;;;-2.95;100.00
36354;BME280;22383;51.114;13.666;2023-03-03T01:48:24;66849.28;;;-3.15;100.00
36354;BME280;22383;51.114;13.666;2023-03-03T01:51:03;66852.22;;;-3.17;100.00
36354;BME280;22383;51.114;13.666;2023-03-03T01:53:47;66803.03;;;-3.17;100.00
36354;BME280;22383;51.114;13.666;2023-03-03T01:56:15;66853.31;;;-3.16;100.00
36354;BME280;22383;51.114;13.666;2023-03-03T02:01:19;66834.84;;;-3.33;100.00
36354;BME280;22383;51.114;13.666;2023-03-03T02:03:48;66826.41;;;-3.40;100.00
36354;BME280;22383;51.114;13.666;2023-03-03T02:06:19;66839.53;;;-3.26;100.00
36354;BME280;22383;51.114;13.666;2023-03-03T02:09:12;66797.22;;;-3.25;100.00
36354;BME280;22383;51.114;13.666;2023-03-03T02:11:44;66847.16;;;-3.21;100.00
36354;BME280;22383;51.114;13.666;2023-03-03T02:14:12;66849.41;;;-3.19;100.00
36354;BME280;22383;51.114;13.666;2023-03-03T02:16:42;66843.78;;;-3.25;100.00
36354;BME280;22383;51.114;13.666;2023-03-03T02:19:32;66834.50;;;-3.31;100.00
36354;BME280;22383;51.114;13.666;2023-03-03T02:22:02;66801.38;;;-3.18;100.00
36354;BME280;22383;51.114;13.666;2023-03-03T02:24:55;66844.91;;;-3.24;100.00
36354;BME280;22383;51.114;13.666;2023-03-03T02:27:23;66784.56;;;-3.34;100.00
36354;BME280;22383;51.114;13.666;2023-03-03T02:29:53;66780.09;;;-3.38;100.00
36354;BME280;22383;51.114;13.666;2023-03-03T02:32:20;66831.13;;;-3.34;100.00
36354;BME280;22383;51.114;13.666;2023-03-03T02:34:49;66820.50;;;-3.44;100.00
36354;BME280;22383;51.114;13.666;2023-03-03T02:37:19;66821.94;;;-3.45;100.00
36354;BME280;22383;51.114;13.666;2023-03-03T02:39:46;66820.50;;;-3.44;100.00
36354;BME280;22383;51.114;13.666;2023-03-03T02:42:19;66816.34;;;-3.50;100.00
36354;BME280;22383;51.114;13.666;2023-03-03T02:44:52;66809.06;;;-3.56;100.00
36354;BME280;22383;51.114;13.666;2023-03-03T02:47:19;66796.16;;;-3.68;100.00
36354;BME280;22383;51.114;13.666;2023-03-03T02:49:46;66798.97;;;-3.66;100.00
36354;BME280;22383;51.114;13.666;2023-03-03T02:52:13;66798.44;;;-3.66;100.00
36354;BME280;22383;51.114;13.666;2023-03-03T02:54:45;66792.81;;;-3.71;100.00
36354;BME280;22383;51.114;13.666;2023-03-03T02:57:13;66792.81;;;-3.71;100.00
36354;BME280;22383;51.114;13.666;2023-03-03T02:59:40;66790.59;;;-3.73;100.00
36354;BME280;22383;51.114;13.666;2023-03-03T03:02:11;66792.25;;;-3.72;100.00
36354;BME280;22383;51.114;13.666;2023-03-03T03:04:38;66791.69;;;-3.72;100.00
36354;BME280;22383;51.114;13.666;2023-03-03T03:07:06;66790.00;;;-3.74;100.00
36354;BME280;22383;51.114;13.666;2023-03-03T03:09:35;66785.75;;;-3.75;100.00
36354;BME280;22383;51.114;13.666;2023-03-03T03:12:03;66744.06;;;-3.73;100.00
36354;BME280;22383;51.114;13.666;2023-03-03T03:14:33;66795.06;;;-3.69;100.00
36354;BME280;22383;51.114;13.666;2023-03-03T03:17:00;66747.97;;;-3.70;100.00
36354;BME280;22383;51.114;13.666;2023-03-03T03:19:28;66795.84;;;-3.66;100.00
36354;BME280;22383;51.114;13.666;2023-03-03T03:21:59;66807.38;;;-3.58;100.00
36354;BME280;22383;51.114;13.666;2023-03-03T03:24:29;66807.94;;;-3.57;100.00
36354;BME280;22383;51.114;13.666;2023-03-03T03:27:01;66753.78;;;-3.62;100.00
36354;BME280;22383;51.114;13.666;2023-03-03T03:29:29;66805.91;;;-3.57;100.00
36354;BME280;22383;51.114;13.666;2023-03-03T03:31:56;66803.88;;;-3.56;100.00
36354;BME280;22383;51.114;13.666;2023-03-03T03:34:23;66800.66;;;-3.64;100.00
36354;BME280;22383;51.114;13.666;2023-03-03T03:36:53;66755.47;;;-3.61;100.00
36354;BME280;22383;51.114;13.666;2023-03-03T03:39:22;66793.38;;;-3.71;100.00
36354;BME280;22383;51.114;13.666;2023-03-03T03:41:51;66795.63;;;-3.69;100.00
36354;BME280;22383;51.114;13.666;2023-03-03T03:44:18;66793.59;;;-3.68;100.00
36354;BME280;22383;51.114;13.666;2023-03-03T03:46:46;66791.91;;;-3.70;100.00
36354;BME280;22383;51.114;13.666;2023-03-03T03:49:13;66747.63;;;-3.68;100.00
36354;BME280;22383;51.114;13.666;2023-03-03T03:51:41;66797.28;;;-3.67;100.00
36354;BME280;22383;51.114;13.666;2023-03-03T03:54:12;66798.63;;;-3.64;100.00
36354;BME280;22383;51.114;13.666;2023-03-03T03:56:40;66757.50;;;-3.61;100.00
36354;BME280;22383;51.114;13.666;2023-03-03T03:59:08;66799.75;;;-3.63;100.00
36354;BME280;22383;51.114;13.666;2023-03-03T04:01:36;66804.59;;;-3.61;100.00
36354;BME280;22383;51.114;13.666;2023-03-03T04:04:03;66802.00;;;-3.61;100.00
36354;BME280;22383;51.114;13.666;2023-03-03T04:06:31;66802.56;;;-3.60;100.00
36354;BME280;22383;51.114;13.666;2023-03-03T04:08:59;66806.47;;;-3.56;100.00
36354;BME280;22383;51.114;13.666;2023-03-03T04:11:28;66809.06;;;-3.56;100.00
36354;BME280;22383;51.114;13.666;2023-03-03T04:13:55;66806.69;;;-3.54;100.00
36354;BME280;22383;51.114;13.666;2023-03-03T04:16:23;66766.09;;;-3.51;100.00
36354;BME280;22383;51.114;13.666;2023-03-03T04:18:50;66819.72;;;-3.47;100.00
36354;BME280;22383;51.114;13.666;2023-03-03T04:21:19;66815.78;;;-3.50;100.00
36354;BME280;22383;51.114;13.666;2023-03-03T04:23:47;66812.97;;;-3.53;100.00
36354;BME280;22383;51.114;13.666;2023-03-03T04:26:15;66812.06;;;-3.51;100.00
36354;BME280;22383;51.114;13.666;2023-03-03T04:28:43;66815.44;;;-3.48;100.00
36354;BME280;22383;51.114;13.666;2023-03-03T04:31:11;66821.03;;;-3.43;100.00
36354;BME280;22383;51.114;13.666;2023-03-03T04:33:38;66816.91;;;-3.49;100.00
36354;BME280;22383;51.114;13.666;2023-03-03T04:36:07;66819.13;;;-3.47;100.00
36354;BME280;22383;51.114;13.666;2023-03-03T04:38:34;66821.25;;;-3.40;100.00
36354;BME280;22383;51.114;13.666;2023-03-03T04:41:01;66825.88;;;-3.41;100.00
36354;BME280;22383;51.114;13.666;2023-03-03T04:43:33;66828.34;;;-3.36;100.00
36354;BME280;22383;51.114;13.666;2023-03-03T04:46:01;66830.91;;;-3.36;100.00
36354;BME280;22383;51.114;13.666;2023-03-03T04:48:28;66826.84;;;-3.35;100.00
36354;BME280;22383;51.114;13.666;2023-03-03T04:50:55;66825.75;;;-3.36;100.00
36354;BME280;22383;51.114;13.666;2023-03-03T04:53:23;66825.53;;;-3.39;100.00
36354;BME280;22383;51.114;13.666;2023-03-03T04:55:51;66825.75;;;-3.36;100.00
36354;BME280;22383;51.114;13.666;2023-03-03T04:58:19;66832.03;;;-3.35;100.00
36354;BME280;22383;51.114;13.666;2023-03-03T05:00:54;66830.34;;;-3.37;100.00
36354;BME280;22383;51.114;13.666;2023-03-03T05:03:22;66776.72;;;-3.41;100.00
36354;BME280;22383;51.114;13.666;2023-03-03T05:05:50;66819.34;;;-3.45;100.00
36354;BME280;22383;51.114;13.666;2023-03-03T05:08:17;66827.75;;;-3.37;100.00
36354;BME280;22383;51.114;13.666;2023-03-03T05:10:44;66829.78;;;-3.37;100.00
36354;BME280;22383;51.114;13.666;2023-03-03T05:13:12;66841.78;;;-3.24;100.00
36354;BME280;22383;51.114;13.666;2023-03-03T05:15:41;66835.41;;;-3.32;100.00
36354;BME280;22383;51.114;13.666;2023-03-03T05:18:09;66832.38;;;-3.37;100.00
36354;BME280;22383;51.114;13.666;2023-03-03T05:20:39;66828.66;;;-3.38;100.00
36354;BME280;22383;51.114;13.666;2023-03-03T05:23:06;66829.44;;;-3.35;100.00
36354;BME280;22383;51.114;13.666;2023-03-03T05:25:33;66835.94;;;-3.32;100.00
36354;BME280;22383;51.114;13.666;2023-03-03T05:28:01;66831.34;;;-3.31;100.00
36354;BME280;22383;51.114;13.666;2023-03-03T05:30:30;66833.72;;;-3.34;100.00
36354;BME280;22383;51.114;13.666;2023-03-03T05:32:57;66824.41;;;-3.40;100.00
36354;BME280;22383;51.114;13.666;2023-03-03T05:35:25;66826.66;;;-3.38;100.00
36354;BME280;22383;51.114;13.666;2023-03-03T05:37:53;66825.88;;;-3.41;100.00
36354;BME280;22383;51.114;13.666;2023-03-03T05:40:20;66831.13;;;-3.34;100.00
36354;BME280;22383;51.114;13.666;2023-03-03T05:42:47;66838.19;;;-3.30;100.00
36354;BME280;22383;51.114;13.666;2023-03-03T05:45:14;66840.09;;;-3.26;100.00
36354;BME280;22383;51.114;13.666;2023-03-03T05:47:42;66837.63;;;-3.30;100.00
36354;BME280;22383;51.114;13.666;2023-03-03T05:50:09;66830.78;;;-3.32;100.00
36354;BME280;22383;51.114;13.666;2023-03-03T05:52:39;66835.03;;;-3.30;100.00
36354;BME280;22383;51.114;13.666;2023-03-03T05:55:06;66829.78;;;-3.37;100.00
36354;BME280;22383;51.114;13.666;2023-03-03T05:57:41;66827.41;;;-3.35;100.00
36354;BME280;22383;51.114;13.666;2023-03-03T06:00:09;66837.06;;;-3.31;100.00
36354;BME280;22383;51.114;13.666;2023-03-03T06:02:41;66833.38;;;-3.32;100.00
36354;BME280;22383;51.114;13.666;2023-03-03T06:05:09;66837.84;;;-3.28;100.00
36354;BME280;22383;51.114;13.666;2023-03-03T06:07:37;66837.28;;;-3.28;100.00
36354;BME280;22383;51.114;13.666;2023-03-03T06:10:05;66838.19;;;-3.30;100.00
36354;BME280;22383;51.114;13.666;2023-03-03T06:12:35;66846.59;;;-3.22;100.00
36354;BME280;22383;51.114;13.666;2023-03-03T06:15:06;66846.03;;;-3.22;100.00
36354;BME280;22383;51.114;13.666;2023-03-03T06:17:33;66840.44;;;-3.28;100.00
36354;BME280;22383;51.114;13.666;2023-03-03T06:20:00;66840.44;;;-3.28;100.00
36354;BME280;22383;51.114;13.666;2023-03-03T06:22:28;66845.47;;;-3.23;100.00
36354;BME280;22383;51.114;13.666;2023-03-03T06:24:55;66841.19;;;-3.25;100.00
36354;BME280;22383;51.114;13.666;2023-03-03T06:27:22;66844.56;;;-3.21;100.00
36354;BME280;22383;51.114;13.666;2023-03-03T06:29:49;66851.63;;;-3.17;100.00
36354;BME280;22383;51.114;13.666;2023-03-03T06:32:17;66846.47;;;-3.17;100.00
36354;BME280;22383;51.114;13.666;2023-03-03T06:34:44;66849.28;;;-3.15;100.00
36354;BME280;22383;51.114;13.666;2023-03-03T06:37:11;66849.63;;;-3.17;100.00
36354;BME280;22383;51.114;13.666;2023-03-03T06:39:38;66853.53;;;-3.13;100.00
36354;BME280;22383;51.114;13.666;2023-03-03T06:42:05;66847.38;;;-3.19;100.00
36354;BME280;22383;51.114;13.666;2023-03-03T06:44:33;66802.81;;;-3.19;100.00
36354;BME280;22383;51.114;13.666;2023-03-03T06:47:01;66854.66;;;-3.12;100.00
36354;BME280;22383;51.114;13.666;2023-03-03T06:49:28;66849.03;;;-3.17;100.00
36354;BME280;22383;51.114;13.666;2023-03-03T06:52:10;66852.22;;;-3.17;100.00
36354;BME280;22383;51.114;13.666;2023-03-03T06:54:38;66803.41;;;-3.19;100.00
36354;BME280;22383;51.114;13.666;2023-03-03T06:57:28;66858.38;;;-3.11;100.00
36354;BME280;22383;51.114;13.666;2023-03-03T06:59:59;66858.38;;;-3.11;100.00
36354;BME280;22383;51.114;13.666;2023-03-03T07:02:33;66860.84;;;-3.07;100.00
36354;BME280;22383;51.114;13.666;2023-03-03T07:05:00;66859.50;;;-3.10;100.00
36354;BME280;22383;51.114;13.666;2023-03-03T07:07:28;66852.97;;;-3.14;100.00
36354;BME280;22383;51.114;13.666;2023-03-03T07:09:56;66859.16;;;-3.08;100.00
36354;BME280;22383;51.114;13.666;2023-03-03T07:12:29;66862.84;;;-3.07;100.00
36354;BME280;22383;51.114;13.666;2023-03-03T07:15:16;66850.38;;;-3.14;100.00
36354;BME280;22383;51.114;13.666;2023-03-03T07:17:48;66856.91;;;-3.10;100.00
36354;BME280;22383;51.114;13.666;2023-03-03T07:20:22;66812.56;;;-3.08;100.00
36354;BME280;22383;51.114;13.666;2023-03-03T07:22:51;66866.75;;;-3.04;100.00
36354;BME280;22383;51.114;13.666;2023-03-03T07:25:45;66867.00;;;-3.01;100.00
36354;BME280;22383;51.114;13.666;2023-03-03T07:30:50;66872.38;;;-2.98;100.00
36354;BME280;22383;51.114;13.666;2023-03-03T07:33:24;66865.09;;;-3.05;100.00
36354;BME280;22383;51.114;13.666;2023-03-03T07:35:55;66859.69;;;-3.08;100.00
36354;BME280;22383;51.114;13.666;2023-03-03T07:38:36;66859.16;;;-3.08;100.00
36354;BME280;22383;51.114;13.666;2023-03-03T07:41:12;66862.84;;;-3.07;100.00
36354;BME280;22383;51.114;13.666;2023-03-03T07:46:45;66867.34;;;-3.03;100.00
36354;BME280;22383;51.114;13.666;2023-03-03T07:51:52;66863.63;;;-3.04;100.00
36354;BME280;22383;51.114;13.666;2023-03-03T07:56:52;66814.59;;;-3.09;100.00
36354;BME280;22383;51.114;13.666;2023-03-03T07:59:20;66871.25;;;-2.99;100.00
36354;BME280;22383;51.114;13.666;2023-03-03T08:01:54;66879.09;;;-2.92;100.00
36354;BME280;22383;51.114;13.666;2023-03-03T08:04:38;66821.50;;;-3.00;100.00
36354;BME280;22383;51.114;13.666;2023-03-03T08:07:13;66819.28;;;-3.02;100.00
36354;BME280;22383;51.114;13.666;2023-03-03T08:09:47;66826.34;;;-2.98;100.00
36354;BME280;22383;51.114;13.666;2023-03-03T08:17:47;66874.84;;;-2.94;100.00
36354;BME280;22383;51.114;13.666;2023-03-03T08:20:41;66883.81;;;-2.86;100.00
36354;BME280;22383;51.114;13.666;2023-03-03T08:23:11;66883.03;;;-2.89;100.00
36354;BME280;22383;51.114;13.666;2023-03-03T08:25:40;66885.81;;;-2.86;100.00
36354;BME280;22383;51.114;13.666;2023-03-03T08:28:09;66888.06;;;-2.84;100.00
36354;BME280;22383;51.114;13.666;2023-03-03T08:30:37;66885.69;;;-2.81;100.00
36354;BME280;22383;51.114;13.666;2023-03-03T08:33:04;66889.97;;;-2.80;100.00
36354;BME280;22383;51.114;13.666;2023-03-03T08:35:32;66897.59;;;-2.75;100.00
36354;BME280;22383;51.114;13.666;2023-03-03T08:37:59;66853.44;;;-2.71;100.00
36354;BME280;22383;51.114;13.666;2023-03-03T08:40:27;66898.16;;;-2.75;100.00
36354;BME280;22383;51.114;13.666;2023-03-03T08:42:54;66897.59;;;-2.75;100.00
36354;BME280;22383;51.114;13.666;2023-03-03T08:45:21;66896.34;;;-2.72;100.00
36354;BME280;22383;51.114;13.666;2023-03-03T08:47:49;66900.28;;;-2.68;100.00
36354;BME280;22383;51.114;13.666;2023-03-03T08:50:17;66906.78;;;-2.64;100.00
36354;BME280;22383;51.114;13.666;2023-03-03T08:52:45;66906.22;;;-2.65;100.00
36354;BME280;22383;51.114;13.666;2023-03-03T08:55:12;66915.00;;;-2.59;100.00
36354;BME280;22383;51.114;13.666;2023-03-03T08:57:40;66925.06;;;-2.50;100.00
36354;BME280;22383;51.114;13.666;2023-03-03T09:00:11;66925.06;;;-2.50;100.00
36354;BME280;22383;51.114;13.666;2023-03-03T09:02:38;66923.41;;;-2.52;100.00
36354;BME280;22383;51.114;13.666;2023-03-03T09:05:06;66921.16;;;-2.54;100.00
36354;BME280;22383;51.114;13.666;2023-03-03T09:07:34;66926.19;;;-2.49;100.00
36354;BME280;22383;51.114;13.666;2023-03-03T09:10:03;66929.97;;;-2.41;100.00
36354;BME280;22383;51.114;13.666;2023-03-03T09:12:38;66918.00;;;-2.54;100.00
36354;BME280;22383;51.114;13.666;2023-03-03T09:17:46;66931.13;;;-2.40;100.00
36354;BME280;22383;51.114;13.666;2023-03-03T09:23:31;66884.25;;;-2.42;100.00
36354;BME280;22383;51.114;13.666;2023-03-03T09:31:50;66904.75;;;-2.64;100.00
36354;BME280;22383;51.114;13.666;2023-03-03T09:34:22;66904.53;;;-2.67;100.00
36354;BME280;22383;51.114;13.666;2023-03-03T09:36:51;66908.81;;;-2.65;100.00
36354;BME280;22383;51.114;13.666;2023-03-03T09:39:25;66905.66;;;-2.66;100.00
36354;BME280;22383;51.114;13.666;2023-03-03T10:01:54;66918.91;;;-2.56;100.00
36354;BME280;22383;51.114;13.666;2023-03-03T10:07:59;66921.72;;;-2.53;100.00
36354;BME280;22383;51.114;13.666;2023-03-03T10:10:23;66914.28;;;-2.55;100.00
36354;BME280;22383;51.114;13.666;2023-03-03T10:13:21;66917.78;;;-2.57;100.00
36354;BME280;22383;51.114;13.666;2023-03-03T10:18:41;66925.84;;;-2.47;100.00
36354;BME280;22383;51.114;13.666;2023-03-03T10:24:39;66921.94;;;-2.51;100.00
36354;BME280;22383;51.114;13.666;2023-03-03T10:27:47;66920.25;;;-2.52;100.00
36354;BME280;22383;51.114;13.666;2023-03-03T10:36:44;66932.03;;;-2.41;100.00
36354;BME280;22383;51.114;13.666;2023-03-03T10:42:02;66932.38;;;-2.43;100.00
36354;BME280;22383;51.114;13.666;2023-03-03T10:45:04;66941.31;;;-2.35;100.00
36354;BME280;22383;51.114;13.666;2023-03-03T10:50:40;66936.84;;;-2.39;100.00
36354;BME280;22383;51.114;13.666;2023-03-03T10:53:34;66945.47;;;-2.29;100.00
36354;BME280;22383;51.114;13.666;2023-03-03T10:56:32;66946.94;;;-2.30;100.00
36354;BME280;22383;51.114;13.666;2023-03-03T11:07:32;66936.50;;;-2.37;100.00
36354;BME280;22383;51.114;13.666;2023-03-03T11:18:36;66885.16;;;-2.44;100.00
36354;BME280;22383;51.114;13.666;2023-03-03T11:21:22;66880.69;;;-2.48;100.00
36354;BME280;22383;51.114;13.666;2023-03-03T11:23:59;66920.81;;;-2.52;100.00
36354;BME280;22383;51.114;13.666;2023-03-03T11:26:32;66884.63;;;-2.44;100.00
36354;BME280;22383;51.114;13.666;2023-03-03T11:31:53;66947.50;;;-2.30;100.00
36354;BME280;22383;51.114;13.666;2023-03-03T11:37:28;66961.31;;;-2.19;100.00
36354;BME280;22383;51.114;13.666;2023-03-03T11:40:11;66957.59;;;-2.20;100.00
36354;BME280;22383;51.114;13.666;2023-03-03T11:42:46;66953.09;;;-2.24;100.00
36354;BME280;22383;51.114;13.666;2023-03-03T11:45:18;66957.25;;;-2.18;100.00
36354;BME280;22383;51.114;13.666;2023-03-03T11:47:55;66960.41;;;-2.18;100.00
36354;BME280;22383;51.114;13.666;2023-03-03T11:50:30;66959.50;;;-2.16;100.00
36354;BME280;22383;51.114;13.666;2023-03-03T11:53:31;66953.31;;;-2.22;100.00
36354;BME280;22383;51.114;13.666;2023-03-03T11:56:21;66950.88;;;-2.26;100.00
36354;BME280;22383;51.114;13.666;2023-03-03T11:59:03;66944.69;;;-2.32;100.00
36354;BME280;22383;51.114;13.666;2023-03-03T12:01:41;66910.41;;;-2.21;100.00
36354;BME280;22383;51.114;13.666;2023-03-03T12:04:36;66946.81;;;-2.25;100.00
36354;BME280;22383;51.114;13.666;2023-03-03T12:12:43;66969.03;;;-2.07;100.00
36354;BME280;22383;51.114;13.666;2023-03-03T12:24:24;66992.03;;;-1.86;100.00
36354;BME280;22383;51.114;13.666;2023-03-03T12:29:42;66990.13;;;-1.91;100.00
36354;BME280;22383;51.114;13.666;2023-03-03T12:35:28;66988.09;;;-1.90;100.00
36354;BME280;22383;51.114;13.666;2023-03-03T12:38:28;66994.63;;;-1.86;100.00
36354;BME280;22383;51.114;13.666;2023-03-03T12:44:05;66995.94;;;-1.83;100.00
36354;BME280;22383;51.114;13.666;2023-03-03T12:49:14;66995.41;;;-1.83;100.00
36354;BME280;22383;51.114;13.666;2023-03-03T12:52:01;66996.31;;;-1.85;100.00
36354;BME280;22383;51.114;13.666;2023-03-03T12:54:40;67001.38;;;-1.80;100.00
36354;BME280;22383;51.114;13.666;2023-03-03T12:57:18;67000.78;;;-1.81;100.00
36354;BME280;22383;51.114;13.666;2023-03-03T13:06:21;67013.34;;;-1.67;100.00
36354;BME280;22383;51.114;13.666;2023-03-03T13:09:12;67027.72;;;-1.56;100.00
36354;BME280;22383;51.114;13.666;2023-03-03T13:17:34;67007.19;;;-1.73;100.00
36354;BME280;22383;51.114;13.666;2023-03-03T13:20:18;66993.16;;;-1.85;100.00
36354;BME280;22383;51.114;13.666;2023-03-03T13:25:48;67014.81;;;-1.68;100.00
36354;BME280;22383;51.114;13.666;2023-03-03T13:31:11;67041.19;;;-1.44;100.00
36354;BME280;22383;51.114;13.666;2023-03-03T13:33:51;67039.72;;;-1.43;100.00
36354;BME280;22383;51.114;13.666;2023-03-03T13:36:24;67038.25;;;-1.42;100.00
36354;BME280;22383;51.114;13.666;2023-03-03T13:38:55;67045.91;;;-1.37;100.00
36354;BME280;22383;51.114;13.666;2023-03-03T13:44:08;67028.50;;;-1.53;100.00
36354;BME280;22383;51.114;13.666;2023-03-03T13:50:46;67018.19;;;-1.65;100.00
36354;BME280;22383;51.114;13.666;2023-03-03T13:52:58;67019.53;;;-1.61;100.00
36354;BME280;22383;51.114;13.666;2023-03-03T13:55:39;67022.88;;;-1.58;100.00
36354;BME280;22383;51.114;13.666;2023-03-03T14:06:24;67041.19;;;-1.44;100.00
36354;BME280;22383;51.114;13.666;2023-03-03T14:08:59;67031.88;;;-1.50;100.00
36354;BME280;22383;51.114;13.666;2023-03-03T14:11:45;67031.09;;;-1.53;100.00
36354;BME280;22383;51.114;13.666;2023-03-03T14:17:54;67061.59;;;-1.23;100.00
36354;BME280;22383;51.114;13.666;2023-03-03T14:20:35;67039.38;;;-1.41;100.00
36354;BME280;22383;51.114;13.666;2023-03-03T14:23:19;67037.47;;;-1.45;100.00
36354;BME280;22383;51.114;13.666;2023-03-03T14:25:59;67044.56;;;-1.41;100.00
36354;BME280;22383;51.114;13.666;2023-03-03T14:28:45;67046.25;;;-1.39;100.00
36354;BME280;22383;51.114;13.666;2023-03-03T14:36:37;67039.72;;;-1.43;100.00
36354;BME280;22383;51.114;13.666;2023-03-03T14:39:30;67044.63;;;-1.34;100.00
36354;BME280;22383;51.114;13.666;2023-03-03T14:41:58;67053.19;;;-1.30;100.00
36354;BME280;22383;51.114;13.666;2023-03-03T14:44:34;67043.66;;;-1.39;100.00
36354;BME280;22383;51.114;13.666;2023-03-03T14:47:20;67034.09;;;-1.48;100.00
36354;BME280;22383;51.114;13.666;2023-03-03T14:49:49;67029.84;;;-1.49;100.00
36354;BME280;22383;51.114;13.666;2023-03-03T14:52:22;67038.94;;;-1.46;100.00
36354;BME280;22383;51.114;13.666;2023-03-03T14:55:01;66984.63;;;-1.50;100.00
36354;BME280;22383;51.114;13.666;2023-03-03T14:57:49;67041.19;;;-1.44;100.00
36354;BME280;22383;51.114;13.666;2023-03-03T15:05:27;67038.59;;;-1.44;100.00
36354;BME280;22383;51.114;13.666;2023-03-03T15:10:42;67047.81;;;-1.33;100.00
36354;BME280;22383;51.114;13.666;2023-03-03T15:16:18;67032.06;;;-1.47;100.00
36354;BME280;22383;51.114;13.666;2023-03-03T15:21:32;67022.88;;;-1.58;100.00
36354;BME280;22383;51.114;13.666;2023-03-03T15:26:59;67021.56;;;-1.62;100.00
36354;BME280;22383;51.114;13.666;2023-03-03T15:34:51;67006.28;;;-1.71;100.00
36354;BME280;22383;51.114;13.666;2023-03-03T15:37:55;67004.03;;;-1.73;100.00
36354;BME280;22383;51.114;13.666;2023-03-03T15:40:36;67003.25;;;-1.76;100.00
36354;BME280;22383;51.114;13.666;2023-03-03T15:46:30;67013.91;;;-1.66;100.00
36354;BME280;22383;51.114;13.666;2023-03-03T15:49:31;67019.31;;;-1.64;100.00
36354;BME280;22383;51.114;13.666;2023-03-03T15:52:36;67020.09;;;-1.61;100.00
36354;BME280;22383;51.114;13.666;2023-03-03T16:03:32;67003.25;;;-1.76;100.00
36354;BME280;22383;51.114;13.666;2023-03-03T16:06:10;67014.81;;;-1.68;100.00
36354;BME280;22383;51.114;13.666;2023-03-03T16:11:39;67003.03;;;-1.79;100.00
36354;BME280;22383;51.114;13.666;2023-03-03T16:14:34;66998.53;;;-1.83;100.00
36354;BME280;22383;51.114;13.666;2023-03-03T16:17:31;66991.81;;;-1.89;100.00
36354;BME280;22383;51.114;13.666;2023-03-03T16:20:08;66988.66;;;-1.90;100.00
36354;BME280;22383;51.114;13.666;2023-03-03T16:28:30;66987.53;;;-1.91;100.00
36354;BME280;22383;51.114;13.666;2023-03-03T16:31:07;66985.84;;;-1.92;100.00
36354;BME280;22383;51.114;13.666;2023-03-03T16:34:14;66990.91;;;-1.87;100.00
36354;BME280;22383;51.114;13.666;2023-03-03T16:37:13;66990.56;;;-1.85;100.00
36354;BME280;22383;51.114;13.666;2023-03-03T16:42:29;66992.38;;;-1.88;100.00
36354;BME280;22383;51.114;13.666;2023-03-03T16:45:05;66984.41;;;-1.91;100.00